Time;durP1;ratioP1;P1;durP2;ratioP2;P2;SDS_P1;SDS_P2;PMS_P1;PMS_P2;Temp;Humidity;BMP_temperature;BMP_pressure;BME280_temperature;BME280_humidity;BME280_pressure;Samples;Min_cycle;Max_cycle;Signal;HPM_P1;HPM_P2
2021/03/12 00:00:27;;;;;;;57.25;2.70;;;6.00;1.00;;;;;;5133874;27;20298;-69
2021/03/12 00:02:53;;;;;;;58.28;2.78;;;6.00;1.00;;;;;;5133494;27;20229;-68
2021/03/12 00:05:21;;;;;;;56.10;2.60;;;5.90;1.00;;;;;;5133671;27;20671;-68
2021/03/12 00:07:48;;;;;;;57.35;2.60;;;5.90;1.00;;;;;;5133765;27;20250;-68
2021/03/12 00:10:17;;;;;;;56.10;2.42;;;5.80;1.00;;;;;;5133821;27;20207;-68
2021/03/12 00:12:43;;;;;;;58.22;2.45;;;5.90;1.00;;;;;;5133584;27;20231;-67
2021/03/12 00:15:12;;;;;;;55.97;2.47;;;5.80;1.00;;;;;;5133467;27;20207;-68
2021/03/12 00:17:40;;;;;;;58.20;2.63;;;5.90;1.00;;;;;;5133323;27;20227;-68
2021/03/12 00:20:09;;;;;;;58.92;2.80;;;5.90;1.00;;;;;;5133075;27;20206;-68
2021/03/12 00:22:36;;;;;;;57.45;3.00;;;5.90;1.00;;;;;;5133571;27;20601;-69
2021/03/12 00:25:04;;;;;;;55.70;2.33;;;5.90;1.00;;;;;;5133369;27;20209;-68
2021/03/12 00:27:31;;;;;;;57.63;2.45;;;6.00;1.00;;;;;;5133304;27;20228;-69
2021/03/12 00:29:57;;;;;;;56.38;2.40;;;6.10;1.00;;;;;;5133041;27;20298;-69
2021/03/12 00:32:23;;;;;;;56.78;3.30;;;6.10;1.00;;;;;;5133321;27;20219;-68
2021/03/12 00:34:50;;;;;;;57.95;2.70;;;6.20;1.00;;;;;;5133356;27;20254;-68
2021/03/12 00:37:16;;;;;;;58.65;2.42;;;6.20;1.00;;;;;;5133270;27;20231;-68
2021/03/12 00:39:43;;;;;;;59.90;2.38;;;6.30;1.00;;;;;;5133116;27;20206;-68
2021/03/12 00:42:10;;;;;;;57.80;2.30;;;6.40;1.00;;;;;;5133426;27;20625;-68
2021/03/12 00:44:36;;;;;;;59.63;2.90;;;6.40;1.00;;;;;;5132922;27;20296;-68
2021/03/12 00:47:03;;;;;;;56.28;2.53;;;6.40;1.00;;;;;;5133170;27;20226;-68
2021/03/12 00:49:29;;;;;;;60.40;2.75;;;6.50;1.00;;;;;;5133049;27;20205;-68
2021/03/12 00:51:56;;;;;;;58.05;2.88;;;6.60;1.00;;;;;;5132889;27;20221;-68
2021/03/12 00:54:22;;;;;;;56.53;2.60;;;6.70;1.00;;;;;;5133001;27;20202;-68
2021/03/12 00:56:48;;;;;;;58.08;2.30;;;6.80;1.00;;;;;;5132724;27;20708;-68
2021/03/12 00:59:16;;;;;;;58.47;2.50;;;6.90;1.00;;;;;;5132613;27;20204;-68
2021/03/12 01:01:42;;;;;;;57.65;2.60;;;6.90;1.00;;;;;;5132721;27;20373;-68
2021/03/12 01:04:08;;;;;;;56.38;2.30;;;6.90;1.00;;;;;;5132933;27;20255;-68
2021/03/12 01:06:35;;;;;;;57.83;2.60;;;7.00;1.00;;;;;;5132629;27;20226;-68
2021/03/12 01:09:02;;;;;;;60.40;2.93;;;7.10;1.00;;;;;;5132760;27;20548;-68
2021/03/12 01:11:28;;;;;;;59.33;2.72;;;7.20;1.00;;;;;;5132614;27;20940;-68
2021/03/12 01:13:55;;;;;;;57.63;2.50;;;7.20;1.00;;;;;;5132385;27;20249;-68
2021/03/12 01:16:22;;;;;;;57.05;3.08;;;7.20;1.00;;;;;;5132618;27;20564;-68
2021/03/12 01:18:48;;;;;;;57.20;2.38;;;7.20;1.00;;;;;;5132735;27;20256;-68
2021/03/12 01:21:15;;;;;;;57.13;2.45;;;7.20;1.00;;;;;;5132689;27;20202;-68
2021/03/12 01:23:41;;;;;;;57.38;2.38;;;7.10;1.00;;;;;;5132375;27;20266;-68
2021/03/12 01:26:07;;;;;;;56.58;2.30;;;7.00;1.00;;;;;;5132161;27;20226;-68
2021/03/12 01:28:34;;;;;;;58.95;2.30;;;6.90;1.00;;;;;;5132458;27;20640;-68
2021/03/12 01:31:00;;;;;;;57.57;2.70;;;6.80;1.00;;;;;;5132538;27;20242;-68
2021/03/12 01:33:27;;;;;;;56.65;2.30;;;6.70;1.00;;;;;;5135884;27;21001;-68
2021/03/12 01:35:54;;;;;;;57.10;2.70;;;6.60;1.00;;;;;;5136513;27;20219;-68
2021/03/12 01:38:20;;;;;;;58.25;2.70;;;6.50;1.00;;;;;;5136609;27;20263;-68
2021/03/12 01:40:48;;;;;;;56.27;2.50;;;6.40;1.00;;;;;;5136355;27;20232;-68
2021/03/12 01:43:15;;;;;;;59.90;2.70;;;6.40;1.00;;;;;;5136677;27;20437;-68
2021/03/12 01:45:43;;;;;;;56.85;3.15;;;6.40;1.00;;;;;;5136463;27;20205;-68
2021/03/12 01:48:11;;;;;;;57.75;2.75;;;6.40;1.00;;;;;;5136526;27;20230;-68
2021/03/12 01:50:41;;;;;;;57.95;2.30;;;6.50;1.00;;;;;;5136775;27;20732;-68
2021/03/12 01:53:09;;;;;;;58.15;2.58;;;6.50;1.00;;;;;;5136088;27;20219;-68
2021/03/12 01:55:36;;;;;;;60.22;3.40;;;6.50;1.00;;;;;;5136515;27;20272;-68
2021/03/12 01:58:03;;;;;;;58.58;2.75;;;6.60;1.00;;;;;;5136413;27;20306;-69
2021/03/12 02:00:30;;;;;;;58.75;3.08;;;6.50;1.00;;;;;;5136340;27;20206;-68
2021/03/12 02:02:57;;;;;;;57.50;2.30;;;6.50;1.00;;;;;;5136219;27;20678;-68
2021/03/12 02:05:24;;;;;;;57.55;2.72;;;6.60;1.00;;;;;;5136175;27;20212;-68
2021/03/12 02:07:51;;;;;;;58.47;2.97;;;6.70;1.00;;;;;;5136061;27;20312;-68
2021/03/12 02:10:21;;;;;;;57.25;3.17;;;6.70;1.00;;;;;;5136255;27;20556;-68
2021/03/12 02:12:59;;;;;;;59.10;2.67;;;6.60;1.00;;;;;;5136038;27;20232;-68
2021/03/12 02:15:29;;;;;;;57.58;2.80;;;6.60;1.00;;;;;;5136125;27;20746;-68
2021/03/12 02:18:01;;;;;;;58.92;2.65;;;6.40;1.00;;;;;;5135900;27;20271;-68
2021/03/12 02:20:33;;;;;;;59.33;2.90;;;6.40;1.00;;;;;;5135793;27;20210;-68
2021/03/12 02:23:12;;;;;;;61.85;3.22;;;6.30;1.00;;;;;;5136148;27;20267;-69
2021/03/12 02:25:42;;;;;;;56.10;2.90;;;6.10;1.00;;;;;;5136316;27;20671;-69
2021/03/12 02:28:09;;;;;;;59.30;2.58;;;6.00;1.00;;;;;;5136361;27;20230;-68
2021/03/12 02:30:37;;;;;;;59.10;2.60;;;6.00;1.00;;;;;;5135931;27;20304;-68
2021/03/12 02:33:03;;;;;;;57.05;2.70;;;6.00;1.00;;;;;;5135541;27;20227;-68
2021/03/12 02:35:30;;;;;;;57.80;2.83;;;5.90;1.00;;;;;;5135928;27;20214;-68
2021/03/12 02:37:57;;;;;;;56.95;3.00;;;6.00;1.00;;;;;;5136007;27;20258;-68
2021/03/12 02:40:27;;;;;;;56.65;2.60;;;6.10;1.00;;;;;;5135840;27;20554;-68
2021/03/12 02:42:54;;;;;;;56.08;2.35;;;6.10;1.00;;;;;;5135387;27;20203;-67
2021/03/12 02:45:21;;;;;;;56.00;2.38;;;6.10;1.00;;;;;;5135153;27;20207;-67
2021/03/12 02:47:48;;;;;;;56.58;2.25;;;5.90;1.00;;;;;;5135521;27;20280;-67
2021/03/12 02:50:16;;;;;;;57.47;2.75;;;5.80;1.00;;;;;;5135187;27;20289;-67
2021/03/12 02:52:44;;;;;;;57.05;2.80;;;5.60;1.00;;;;;;5135016;27;20267;-67
2021/03/12 02:55:12;;;;;;;56.90;2.80;;;5.50;1.00;;;;;;5135078;27;20540;-67
2021/03/12 02:57:40;;;;;;;59.85;2.80;;;5.40;1.00;;;;;;5135036;27;20310;-67
2021/03/12 03:00:08;;;;;;;59.10;3.00;;;5.20;1.00;;;;;;5135286;27;20684;-67
2021/03/12 03:02:36;;;;;;;59.35;3.05;;;5.20;1.00;;;;;;5133880;27;20202;-67
2021/03/12 03:05:06;;;;;;;58.83;2.80;;;5.10;1.00;;;;;;5134964;27;20290;-67
2021/03/12 03:07:34;;;;;;;57.65;2.80;;;5.10;1.00;;;;;;5134824;27;20313;-67
2021/03/12 03:10:00;;;;;;;58.65;2.90;;;5.10;1.00;;;;;;5134672;27;20207;-67
2021/03/12 03:12:27;;;;;;;57.80;2.70;;;5.00;1.00;;;;;;5134410;27;20309;-67
2021/03/12 03:14:58;;;;;;;57.35;2.80;;;5.00;1.00;;;;;;5135054;27;20206;-67
2021/03/12 03:17:24;;;;;;;56.78;3.10;;;5.00;1.00;;;;;;5134892;27;20227;-67
2021/03/12 03:19:53;;;;;;;57.42;2.63;;;5.00;1.00;;;;;;5134681;27;20293;-67
2021/03/12 03:22:21;;;;;;;57.88;2.78;;;5.00;1.00;;;;;;5134535;27;20244;-67
2021/03/12 03:24:48;;;;;;;57.95;2.67;;;5.10;1.00;;;;;;5134423;27;20298;-67
2021/03/12 03:27:15;;;;;;;55.88;2.25;;;5.20;1.00;;;;;;5134460;27;20233;-67
2021/03/12 03:29:43;;;;;;;58.75;3.35;;;5.20;1.00;;;;;;5134435;27;20742;-67
2021/03/12 03:32:10;;;;;;;57.13;2.85;;;5.40;1.00;;;;;;5134201;27;20715;-67
2021/03/12 03:34:36;;;;;;;59.13;2.90;;;5.40;1.00;;;;;;5131128;27;20802;-68
2021/03/12 03:37:04;;;;;;;58.35;2.75;;;5.40;1.00;;;;;;5133993;27;20755;-67
2021/03/12 03:39:30;;;;;;;61.75;3.47;;;5.40;1.00;;;;;;5133917;27;20291;-67
2021/03/12 03:42:00;;;;;;;58.85;3.20;;;5.30;1.00;;;;;;5134353;27;20635;-67
2021/03/12 03:44:29;;;;;;;58.70;2.33;;;5.40;1.00;;;;;;5134368;27;20663;-67
2021/03/12 03:46:57;;;;;;;56.00;2.30;;;5.50;1.00;;;;;;5134040;27;20219;-67
2021/03/12 03:49:26;;;;;;;56.85;2.70;;;5.50;1.00;;;;;;5134135;27;20300;-67
2021/03/12 03:51:53;;;;;;;57.42;2.55;;;5.60;1.00;;;;;;5133808;27;20210;-67
2021/03/12 03:54:22;;;;;;;55.92;2.30;;;5.70;1.00;;;;;;5132944;27;20290;-67
2021/03/12 03:56:50;;;;;;;56.80;2.88;;;5.70;1.00;;;;;;5133928;27;20275;-67
2021/03/12 03:59:19;;;;;;;57.15;2.40;;;5.70;1.00;;;;;;5133852;27;20195;-68
2021/03/12 04:01:46;;;;;;;59.75;3.00;;;5.70;1.00;;;;;;5133795;27;20667;-68
2021/03/12 04:04:13;;;;;;;57.65;2.80;;;5.80;1.00;;;;;;5133708;27;20583;-68
2021/03/12 04:06:41;;;;;;;58.03;2.60;;;5.80;1.00;;;;;;5133485;27;20241;-68
2021/03/12 04:09:08;;;;;;;58.33;2.80;;;5.80;1.00;;;;;;5133983;27;20294;-68
2021/03/12 04:11:35;;;;;;;60.40;2.60;;;5.90;1.00;;;;;;5133823;27;20208;-67
2021/03/12 04:14:03;;;;;;;57.40;2.58;;;5.90;1.00;;;;;;5133693;27;20314;-68
2021/03/12 04:16:30;;;;;;;58.53;2.70;;;6.00;1.00;;;;;;5133649;27;20313;-68
2021/03/12 04:18:58;;;;;;;58.85;2.90;;;5.90;1.00;;;;;;5133604;27;20294;-67
2021/03/12 04:21:26;;;;;;;58.05;2.55;;;6.00;1.00;;;;;;5133552;27;20294;-68
2021/03/12 04:23:53;;;;;;;56.40;2.80;;;5.90;1.00;;;;;;5133713;27;20650;-68
2021/03/12 04:26:19;;;;;;;55.17;2.40;;;5.90;1.00;;;;;;5133690;27;20314;-68
2021/03/12 04:28:48;;;;;;;61.05;3.15;;;6.00;1.00;;;;;;5133387;27;20299;-68
2021/03/12 04:31:15;;;;;;;57.53;2.85;;;5.90;1.00;;;;;;5133484;27;20301;-68
2021/03/12 04:33:42;;;;;;;56.05;2.30;;;5.90;1.00;;;;;;5132986;27;20791;-68
2021/03/12 04:36:09;;;;;;;58.90;3.08;;;6.00;1.00;;;;;;5133364;27;20301;-68
2021/03/12 04:38:36;;;;;;;58.08;2.40;;;6.00;1.00;;;;;;5133167;27;20297;-68
2021/03/12 04:41:03;;;;;;;57.67;2.58;;;5.90;1.00;;;;;;5133261;27;20207;-68
2021/03/12 04:43:30;;;;;;;58.40;2.20;;;5.90;1.00;;;;;;5132955;27;20694;-68
2021/03/12 04:46:00;;;;;;;58.33;3.13;;;5.80;1.00;;;;;;5133522;27;20238;-68
2021/03/12 04:48:27;;;;;;;59.00;2.70;;;5.90;1.00;;;;;;5133102;27;20773;-68
2021/03/12 04:50:54;;;;;;;59.55;2.90;;;5.90;1.00;;;;;;5133179;27;20678;-68
2021/03/12 04:53:20;;;;;;;59.15;3.40;;;5.90;1.00;;;;;;5132716;27;20227;-68
2021/03/12 04:55:48;;;;;;;61.40;2.65;;;5.80;1.00;;;;;;5133023;27;20220;-68
2021/03/12 04:58:15;;;;;;;60.28;2.58;;;5.90;1.00;;;;;;5132947;27;20604;-68
2021/03/12 05:00:42;;;;;;;60.10;2.70;;;5.90;1.00;;;;;;5132981;27;20653;-68
2021/03/12 05:03:09;;;;;;;63.78;3.58;;;5.90;1.00;;;;;;5132911;27;20302;-68
2021/03/12 05:05:36;;;;;;;56.83;2.70;;;5.90;1.00;;;;;;5132769;27;20241;-68
2021/03/12 05:08:02;;;;;;;57.50;3.58;;;5.90;1.00;;;;;;5132793;27;20219;-68
2021/03/12 05:10:29;;;;;;;58.38;3.00;;;5.90;1.00;;;;;;5132717;27;20206;-68
2021/03/12 05:12:56;;;;;;;57.67;2.85;;;5.90;1.00;;;;;;5132496;27;20226;-68
2021/03/12 05:15:23;;;;;;;60.08;2.97;;;5.90;1.00;;;;;;5132491;27;20275;-69
2021/03/12 05:17:49;;;;;;;57.92;2.42;;;5.90;1.00;;;;;;5132670;27;20717;-68
2021/03/12 05:20:17;;;;;;;57.22;2.97;;;5.90;1.00;;;;;;5132904;27;20293;-69
2021/03/12 05:22:43;;;;;;;56.60;3.08;;;5.90;1.00;;;;;;5132691;27;20208;-68
2021/03/12 05:25:10;;;;;;;63.00;3.53;;;5.80;1.00;;;;;;5132527;27;20294;-68
2021/03/12 05:27:36;;;;;;;62.58;3.17;;;5.80;1.00;;;;;;5132638;27;20669;-68
2021/03/12 05:30:04;;;;;;;59.63;3.15;;;5.70;1.00;;;;;;5132735;27;20247;-68
2021/03/12 05:32:30;;;;;;;61.35;3.97;;;5.70;1.00;;;;;;5132385;27;20227;-68
2021/03/12 05:34:57;;;;;;;61.60;3.38;;;5.80;1.00;;;;;;5132358;27;20306;-68
2021/03/12 05:37:24;;;;;;;59.45;2.65;;;5.80;1.00;;;;;;5132705;27;20468;-68
2021/03/12 05:39:50;;;;;;;58.22;2.90;;;5.90;1.00;;;;;;5132413;27;20203;-68
2021/03/12 05:42:17;;;;;;;58.70;2.80;;;5.80;1.00;;;;;;5132230;27;20207;-68
2021/03/12 05:44:46;;;;;;;57.95;2.95;;;5.80;1.00;;;;;;5132411;27;20313;-68
2021/03/12 05:47:12;;;;;;;59.60;2.80;;;5.90;1.00;;;;;;5132193;27;20699;-68
2021/03/12 05:49:40;;;;;;;58.65;2.80;;;5.80;1.00;;;;;;5132648;27;20207;-68
2021/03/12 05:52:10;;;;;;;57.35;2.78;;;5.80;1.00;;;;;;5132290;27;20521;-68
2021/03/12 05:54:37;;;;;;;57.22;2.83;;;5.70;1.00;;;;;;5132542;27;20206;-68
2021/03/12 05:57:05;;;;;;;58.00;2.60;;;5.60;1.00;;;;;;5132056;27;20620;-68
2021/03/12 05:59:33;;;;;;;58.70;3.17;;;5.60;1.00;;;;;;5132158;27;20220;-67
2021/03/12 06:01:59;;;;;;;58.65;3.20;;;5.60;1.00;;;;;;5132268;27;20206;-68
2021/03/12 06:04:25;;;;;;;56.60;3.13;;;5.50;1.00;;;;;;5132432;27;20203;-68
2021/03/12 06:06:52;;;;;;;57.03;2.72;;;5.50;1.00;;;;;;5132265;27;20268;-68
2021/03/12 06:09:18;;;;;;;61.90;3.15;;;5.50;1.00;;;;;;5132035;27;20207;-68
2021/03/12 06:11:46;;;;;;;58.42;2.83;;;5.50;1.00;;;;;;5131966;27;20199;-67
2021/03/12 06:14:12;;;;;;;60.80;3.60;;;5.40;1.00;;;;;;5131909;27;20711;-68
2021/03/12 06:16:47;;;;;;;61.00;3.15;;;5.40;1.00;;;;;;5132191;27;20223;-68
2021/03/12 06:19:15;;;;;;;60.17;2.72;;;5.40;1.00;;;;;;5135118;27;20203;-68
2021/03/12 06:21:43;;;;;;;57.75;2.95;;;5.30;1.00;;;;;;5136005;27;20203;-68
2021/03/12 06:24:23;;;;;;;56.88;3.08;;;5.30;1.00;;;;;;5135520;27;20294;-68
2021/03/12 06:26:50;;;;;;;56.80;2.80;;;5.30;1.00;;;;;;5135954;27;20223;-69
2021/03/12 06:29:17;;;;;;;56.85;2.90;;;5.30;1.00;;;;;;5135795;27;20725;-68
2021/03/12 06:31:50;;;;;;;58.55;3.00;;;5.30;1.00;;;;;;5135950;27;20239;-68
2021/03/12 06:34:17;;;;;;;57.75;2.50;;;5.40;1.00;;;;;;5135653;27;20223;-69
2021/03/12 06:36:44;;;;;;;58.75;2.90;;;5.50;1.00;;;;;;5135236;27;20251;-68
2021/03/12 06:39:11;;;;;;;60.35;3.53;;;5.60;1.00;;;;;;5135663;27;20298;-68
2021/03/12 06:41:39;;;;;;;58.10;2.63;;;5.80;1.00;;;;;;5135486;27;20207;-69
2021/03/12 06:44:29;;;;;;;59.15;2.97;;;5.80;1.00;;;;;;5135410;27;20289;-69
2021/03/12 06:46:55;;;;;;;57.15;2.63;;;5.90;1.00;;;;;;5135232;27;20225;-69
2021/03/12 06:49:22;;;;;;;58.55;3.22;;;6.00;1.00;;;;;;5135261;27;20209;-69
2021/03/12 06:51:57;;;;;;;58.55;3.05;;;6.10;1.00;;;;;;5135256;27;20235;-69
2021/03/12 06:54:25;;;;;;;60.13;3.70;;;6.20;1.00;;;;;;5135175;27;20650;-69
2021/03/12 06:56:52;;;;;;;58.65;2.80;;;6.30;1.00;;;;;;5135613;27;20258;-69
2021/03/12 06:59:30;;;;;;;58.05;2.65;;;6.40;1.00;;;;;;5135072;27;20220;-69
2021/03/12 07:01:57;;;;;;;60.00;2.70;;;6.50;1.00;;;;;;5135023;27;20222;-69
2021/03/12 07:04:26;;;;;;;57.42;2.50;;;6.60;1.00;;;;;;5135244;27;20660;-67
2021/03/12 07:06:53;;;;;;;58.70;2.83;;;6.60;1.00;;;;;;5134955;27;20223;-67
2021/03/12 07:09:20;;;;;;;59.92;3.10;;;6.60;1.00;;;;;;5134990;27;20362;-68
2021/03/12 07:11:53;;;;;;;56.47;2.60;;;6.50;1.00;;;;;;5135029;27;20204;-68
2021/03/12 07:14:20;;;;;;;59.00;2.97;;;6.50;1.00;;;;;;5134627;27;20218;-68
2021/03/12 07:16:47;;;;;;;58.20;2.88;;;6.50;1.00;;;;;;5134942;27;20234;-68
2021/03/12 07:19:15;;;;;;;57.25;2.67;;;6.50;1.00;;;;;;5135142;27;20360;-68
2021/03/12 07:21:42;;;;;;;58.80;2.60;;;6.60;1.00;;;;;;5134607;27;20207;-68
2021/03/12 07:24:11;;;;;;;59.92;2.78;;;6.60;1.00;;;;;;5134644;27;20199;-68
2021/03/12 07:26:45;;;;;;;57.33;2.92;;;6.70;1.00;;;;;;5134144;27;20614;-68
2021/03/12 07:29:12;;;;;;;62.20;2.78;;;6.80;1.00;;;;;;5134809;27;20207;-69
2021/03/12 07:31:40;;;;;;;58.95;2.60;;;7.00;1.00;;;;;;5134692;27;20204;-68
2021/03/12 07:34:12;;;;;;;58.63;2.80;;;7.20;1.00;;;;;;5134108;27;20690;-68
2021/03/12 07:36:45;;;;;;;57.75;2.25;;;7.30;1.00;;;;;;5134207;27;20311;-68
2021/03/12 07:39:15;;;;;;;61.25;2.80;;;7.40;1.00;;;;;;5134210;27;20428;-68
2021/03/12 07:41:42;;;;;;;57.38;2.70;;;7.40;1.00;;;;;;5134464;27;20213;-69
2021/03/12 07:44:13;;;;;;;58.78;2.45;;;7.50;1.00;;;;;;5134150;27;20232;-68
2021/03/12 07:46:40;;;;;;;57.00;2.60;;;7.50;1.00;;;;;;5134232;27;20225;-68
2021/03/12 07:49:34;;;;;;;56.40;2.35;;;7.50;1.00;;;;;;5134220;27;20203;-68
2021/03/12 07:52:02;;;;;;;57.20;2.20;;;7.60;1.00;;;;;;5134127;27;20248;-68
2021/03/12 07:54:46;;;;;;;56.85;2.72;;;7.50;1.00;;;;;;5133860;27;20567;-68
2021/03/12 07:57:13;;;;;;;58.03;2.67;;;7.50;1.00;;;;;;5127264;27;20311;-68
2021/03/12 08:00:01;;;;;;;58.10;2.60;;;7.50;1.00;;;;;;5130401;27;20274;-68
2021/03/12 08:02:57;;;;;;;58.72;2.85;;;7.50;1.00;;;;;;5128861;27;20203;-68
2021/03/12 08:05:37;;;;;;;56.97;2.80;;;7.50;1.00;;;;;;5133770;27;20215;-68
2021/03/12 08:08:05;;;;;;;59.83;2.70;;;7.50;1.00;;;;;;5133633;27;20770;-68
2021/03/12 08:10:31;;;;;;;57.95;2.90;;;7.60;1.00;;;;;;5133533;27;20400;-68
2021/03/12 08:12:58;;;;;;;61.80;3.28;;;7.70;1.00;;;;;;5133758;27;20319;-67
2021/03/12 08:15:26;;;;;;;62.27;3.27;;;7.90;1.00;;;;;;5133652;27;20243;-68
2021/03/12 08:18:26;;;;;;;57.43;2.83;;;8.10;1.00;;;;;;5133587;27;20478;-67
2021/03/12 08:20:53;;;;;;;57.87;3.27;;;8.10;1.00;;;;;;5133455;27;20445;-68
2021/03/12 08:23:33;;;;;;;59.10;3.20;;;8.10;1.00;;;;;;5133309;27;20955;-68
2021/03/12 08:26:00;;;;;;;61.40;3.20;;;8.00;1.00;;;;;;5133496;27;20450;-68
2021/03/12 08:28:29;;;;;;;64.57;3.10;;;7.80;1.00;;;;;;5133463;27;20445;-68
2021/03/12 08:30:56;;;;;;;59.05;2.85;;;7.60;1.00;;;;;;5133334;27;21018;-68
2021/03/12 08:33:38;;;;;;;58.35;3.35;;;7.50;1.00;;;;;;5133191;27;20653;-68
2021/03/12 08:36:07;;;;;;;57.00;2.70;;;7.50;1.00;;;;;;5133204;27;20302;-68
2021/03/12 08:38:46;;;;;;;61.73;2.70;;;7.40;1.00;;;;;;5133581;27;20522;-68
2021/03/12 08:41:18;;;;;;;58.70;3.10;;;7.50;1.00;;;;;;5132774;27;20446;-68
2021/03/12 08:43:47;;;;;;;58.10;2.70;;;7.60;1.00;;;;;;5132914;27;20534;-68
2021/03/12 08:46:17;;;;;;;58.45;3.13;;;7.80;1.00;;;;;;5133354;27;20235;-68
2021/03/12 08:48:45;;;;;;;57.80;2.60;;;8.20;1.00;;;;;;5133144;27;20231;-68
2021/03/12 08:51:15;;;;;;;56.67;2.60;;;8.40;1.00;;;;;;5133023;27;20954;-67
2021/03/12 08:53:47;;;;;;;56.77;2.47;;;8.50;1.00;;;;;;5132809;27;20495;-68
2021/03/12 08:56:19;;;;;;;58.87;3.53;;;8.50;1.00;;;;;;5131976;27;20525;-68
2021/03/12 08:58:45;;;;;;;57.07;2.37;;;8.60;1.00;;;;;;5133227;27;20462;-68
2021/03/12 09:01:14;;;;;;;58.07;2.90;;;8.60;1.00;;;;;;5132881;27;20485;-68
2021/03/12 09:03:46;;;;;;;56.77;2.80;;;8.70;1.00;;;;;;5132023;27;20546;-68
2021/03/12 09:06:15;;;;;;;58.17;2.83;;;8.70;1.00;;;;;;5128630;27;20487;-68
2021/03/12 09:08:42;;;;;;;57.17;2.23;;;8.70;1.00;;;;;;5129317;27;20449;-68
2021/03/12 09:11:10;;;;;;;57.65;2.90;;;8.60;1.00;;;;;;5132849;27;20455;-68
2021/03/12 09:13:38;;;;;;;56.70;2.73;;;8.60;1.00;;;;;;5132474;27;20312;-68
2021/03/12 09:16:05;;;;;;;58.67;2.70;;;8.60;1.00;;;;;;5124140;27;20483;-68
2021/03/12 09:18:33;;;;;;;57.07;2.73;;;8.60;1.00;;;;;;5132661;27;20537;-68
2021/03/12 09:21:01;;;;;;;56.97;2.57;;;8.60;1.00;;;;;;5132716;27;20541;-68
2021/03/12 09:23:39;;;;;;;56.90;2.53;;;8.80;1.00;;;;;;5132602;27;20450;-68
2021/03/12 09:26:09;;;;;;;59.60;2.90;;;8.90;1.00;;;;;;5132530;27;20538;-68
2021/03/12 09:28:36;;;;;;;61.00;3.30;;;9.10;1.00;;;;;;5132533;27;20449;-68
2021/03/12 09:31:05;;;;;;;58.47;2.60;;;9.20;1.00;;;;;;5132645;27;20478;-68
2021/03/12 09:33:34;;;;;;;59.23;2.40;;;9.50;1.00;;;;;;5132143;27;20475;-68
2021/03/12 09:36:03;;;;;;;57.50;2.90;;;9.80;1.00;;;;;;5132139;27;20827;-68
2021/03/12 09:38:37;;;;;;;58.97;2.70;;;9.90;1.00;;;;;;5132655;27;20948;-68
2021/03/12 09:41:18;;;;;;;57.40;2.57;;;9.90;1.00;;;;;;5132628;27;20501;-68
2021/03/12 09:43:57;;;;;;;58.20;2.70;;;9.90;1.00;;;;;;5132139;27;20475;-68
2021/03/12 09:46:27;;;;;;;63.80;3.50;;;10.00;1.00;;;;;;5132427;27;20466;-68
2021/03/12 09:48:54;;;;;;;63.07;2.90;;;10.30;1.00;;;;;;5132416;27;20447;-68
2021/03/12 09:51:20;;;;;;;59.60;2.60;;;10.40;1.00;;;;;;5132313;27;20441;-68
2021/03/12 09:53:48;;;;;;;65.23;2.67;;;10.50;1.00;;;;;;5124688;27;20477;-68
2021/03/12 09:56:16;;;;;;;61.90;3.60;;;10.60;1.00;;;;;;5135449;27;21031;-68
2021/03/12 09:58:42;;;;;;;58.00;3.07;;;10.80;1.00;;;;;;5135292;27;20443;-68
2021/03/12 10:01:11;;;;;;;57.97;2.60;;;10.90;1.00;;;;;;5136354;27;20912;-68
2021/03/12 10:03:37;;;;;;;60.30;2.60;;;10.80;1.00;;;;;;5136143;27;20783;-68
2021/03/12 10:06:10;;;;;;;58.67;2.90;;;10.60;1.00;;;;;;5127424;27;20447;-68
2021/03/12 10:09:04;;;;;;;60.70;2.60;;;10.50;1.00;;;;;;5136020;27;20528;-68
2021/03/12 10:11:40;;;;;;;57.90;2.83;;;10.40;1.00;;;;;;5135902;27;20440;-68
2021/03/12 10:14:25;;;;;;;57.47;2.80;;;10.40;1.00;;;;;;5135900;27;21003;-68
2021/03/12 10:17:09;;;;;;;59.97;2.80;;;10.50;1.00;;;;;;5134229;27;20556;-68
2021/03/12 10:19:57;;;;;;;62.60;3.30;;;10.70;1.00;;;;;;5135638;27;20448;-68
2021/03/12 10:22:26;;;;;;;58.47;2.60;;;10.70;1.00;;;;;;5131160;27;20463;-68
2021/03/12 10:24:58;;;;;;;56.90;2.60;;;10.80;1.00;;;;;;5135781;27;20564;-67
2021/03/12 10:27:29;;;;;;;56.97;3.03;;;11.10;1.00;;;;;;5135757;27;21058;-68
2021/03/12 10:29:55;;;;;;;59.90;2.70;;;11.30;1.00;;;;;;5135571;27;20536;-68
2021/03/12 10:32:22;;;;;;;57.17;2.50;;;11.20;1.00;;;;;;5135760;27;20602;-67
2021/03/12 10:34:50;;;;;;;57.60;2.47;;;11.00;1.00;;;;;;5135745;27;20870;-68
2021/03/12 10:37:19;;;;;;;62.27;3.00;;;11.70;1.00;;;;;;5135643;27;20535;-68
2021/03/12 10:39:46;;;;;;;58.20;2.97;;;12.80;1.00;;;;;;5135656;27;20486;-68
2021/03/12 10:42:14;;;;;;;57.40;2.53;;;13.40;1.00;;;;;;5135335;27;20543;-69
2021/03/12 10:44:51;;;;;;;60.73;2.87;;;14.10;1.00;;;;;;5135285;27;20523;-68
2021/03/12 10:47:17;;;;;;;58.00;2.90;;;15.60;1.00;;;;;;5135479;27;20492;-69
2021/03/12 10:49:44;;;;;;;59.93;2.70;;;16.90;1.00;;;;;;5135523;27;20534;-68
2021/03/12 10:52:21;;;;;;;56.30;2.10;;;17.70;1.00;;;;;;5135531;27;20443;-69
2021/03/12 10:54:47;;;;;;;57.03;2.97;;;18.00;1.00;;;;;;5135137;27;20990;-69
2021/03/12 10:57:13;;;;;;;57.67;2.23;;;17.30;1.00;;;;;;5135174;27;21090;-66
2021/03/12 10:59:54;;;;;;;57.20;2.40;;;16.00;1.00;;;;;;5134326;27;20967;-67
2021/03/12 11:02:30;;;;;;;57.23;2.17;;;14.90;1.00;;;;;;5134412;27;20452;-67
2021/03/12 11:04:57;;;;;;;56.33;2.60;;;13.50;1.00;;;;;;5134594;27;20472;-67
2021/03/12 11:07:23;;;;;;;57.20;2.50;;;12.40;1.00;;;;;;5135130;27;20614;-67
2021/03/12 11:09:49;;;;;;;58.53;2.70;;;12.30;1.00;;;;;;5135514;27;20459;-67
2021/03/12 11:12:16;;;;;;;55.97;2.50;;;13.00;1.00;;;;;;5134897;27;20834;-68
2021/03/12 11:14:42;;;;;;;58.80;2.80;;;13.40;1.00;;;;;;5134870;27;20572;-68
2021/03/12 11:17:09;;;;;;;57.80;2.20;;;13.30;1.00;;;;;;5134757;27;20843;-67
2021/03/12 11:19:35;;;;;;;57.10;2.60;;;13.40;1.00;;;;;;5134666;27;20535;-68
2021/03/12 11:22:02;;;;;;;58.80;2.57;;;14.10;1.00;;;;;;5134622;27;20886;-68
2021/03/12 11:24:28;;;;;;;55.90;2.00;;;15.30;1.00;;;;;;5134874;27;20812;-68
2021/03/12 11:26:54;;;;;;;55.57;2.23;;;16.60;1.00;;;;;;5134654;27;20481;-68
2021/03/12 11:29:21;;;;;;;56.17;2.37;;;18.30;1.00;;;;;;5134675;27;20450;-68
2021/03/12 11:31:47;;;;;;;56.70;2.40;;;18.70;1.00;;;;;;5134997;27;20555;-67
2021/03/12 11:34:14;;;;;;;56.73;2.30;;;18.80;1.00;;;;;;5134399;27;21025;-67
2021/03/12 11:36:41;;;;;;;56.90;2.33;;;19.20;1.00;;;;;;5134142;27;20491;-68
2021/03/12 11:39:08;;;;;;;55.60;2.13;;;19.80;1.00;;;;;;5134554;27;20508;-68
2021/03/12 11:41:34;;;;;;;56.43;2.20;;;20.40;1.00;;;;;;5134554;27;20458;-68
2021/03/12 11:44:01;;;;;;;56.10;2.03;;;20.90;1.00;;;;;;5134424;27;20436;-67
2021/03/12 11:46:27;;;;;;;56.97;2.10;;;19.90;1.00;;;;;;5134378;27;20503;-68
2021/03/12 11:48:53;;;;;;;56.73;2.37;;;19.10;1.00;;;;;;5134520;27;20512;-68
2021/03/12 11:51:21;;;;;;;56.37;2.20;;;18.20;1.00;;;;;;5134255;27;20449;-68
2021/03/12 11:53:47;;;;;;;56.97;2.70;;;16.90;1.00;;;;;;5134296;27;20643;-68
2021/03/12 11:56:14;;;;;;;57.80;2.50;;;15.70;1.00;;;;;;5134378;27;20468;-67
2021/03/12 11:58:40;;;;;;;58.20;2.90;;;15.00;1.00;;;;;;5130695;27;20456;-67
2021/03/12 12:01:06;;;;;;;55.87;2.07;;;15.20;1.00;;;;;;5134009;27;20511;-69
2021/03/12 12:03:32;;;;;;;57.37;2.50;;;16.50;1.00;;;;;;5133884;27;20467;-69
2021/03/12 12:05:59;;;;;;;56.00;1.90;;;17.90;1.00;;;;;;5133631;27;20474;-67
2021/03/12 12:08:26;;;;;;;56.80;2.47;;;19.30;1.00;;;;;;5134004;27;20883;-67
2021/03/12 12:10:52;;;;;;;55.57;2.20;;;20.20;1.00;;;;;;5134075;27;20448;-67
2021/03/12 12:13:19;;;;;;;56.20;2.20;;;21.10;1.00;;;;;;5133642;27;20576;-68
2021/03/12 12:15:45;;;;;;;56.80;2.33;;;21.70;1.00;;;;;;5133004;27;20541;-67
2021/03/12 12:18:12;;;;;;;56.57;2.40;;;21.80;1.00;;;;;;5133725;27;20467;-66
2021/03/12 12:20:43;;;;;;;57.23;2.40;;;22.50;1.00;;;;;;5133638;27;20502;-67
2021/03/12 12:23:09;;;;;;;56.77;2.50;;;23.80;1.00;;;;;;5133557;27;20537;-67
2021/03/12 12:25:37;;;;;;;56.20;2.30;;;24.30;1.00;;;;;;5133608;27;20480;-68
2021/03/12 12:28:04;;;;;;;56.90;2.60;;;23.40;1.00;;;;;;5133614;27;20473;-68
2021/03/12 12:30:30;;;;;;;58.10;2.60;;;22.50;1.00;;;;;;5133237;27;20451;-68
2021/03/12 12:32:57;;;;;;;58.10;2.50;;;21.30;1.00;;;;;;5133040;27;20441;-69
2021/03/12 12:35:24;;;;;;;57.17;2.33;;;19.60;1.00;;;;;;5133138;27;20452;-69
2021/03/12 12:37:51;;;;;;;57.47;2.50;;;18.80;1.00;;;;;;5133386;27;20464;-67
2021/03/12 12:40:19;;;;;;;56.60;2.40;;;18.70;1.00;;;;;;5133257;27;20533;-68
2021/03/12 12:42:47;;;;;;;60.53;2.90;;;19.10;1.00;;;;;;5133413;27;20441;-68
2021/03/12 12:45:14;;;;;;;56.50;2.50;;;18.50;1.00;;;;;;5132956;27;20439;-68
2021/03/12 12:47:42;;;;;;;57.23;2.33;;;17.10;1.00;;;;;;5132993;27;20572;-68
2021/03/12 12:50:11;;;;;;;57.10;2.83;;;15.80;1.00;;;;;;5133309;27;20457;-68
2021/03/12 12:52:37;;;;;;;56.67;2.37;;;14.80;1.00;;;;;;5133122;27;20445;-68
2021/03/12 12:55:05;;;;;;;58.60;2.70;;;14.00;1.00;;;;;;5132546;27;21000;-68
2021/03/12 12:57:32;;;;;;;59.67;2.47;;;13.40;1.00;;;;;;5132856;27;20544;-68
2021/03/12 12:59:59;;;;;;;56.83;2.30;;;13.20;1.00;;;;;;5132637;27;20508;-67
2021/03/12 13:02:26;;;;;;;57.77;2.63;;;13.20;1.00;;;;;;5132929;27;20858;-68